sensor_id;sensor_type;location;lat;lon;timestamp;pressure;altitude;pressure_sealevel;temperature;humidity
61674;BME280;47573;43.832;5.974;2022-11-15T00:02:35;95224.91;;;22.79;70.91
61674;BME280;47573;43.832;5.974;2022-11-15T00:07:36;95220.44;;;22.73;70.72
61674;BME280;47573;43.832;5.974;2022-11-15T00:12:37;95215.47;;;22.70;70.40
61674;BME280;47573;43.832;5.974;2022-11-15T00:17:37;95212.66;;;22.65;70.96
61674;BME280;47573;43.832;5.974;2022-11-15T00:22:39;95202.25;;;22.62;70.80
61674;BME280;47573;43.832;5.974;2022-11-15T00:27:40;95190.19;;;22.58;70.01
61674;BME280;47573;43.832;5.974;2022-11-15T00:32:40;95188.50;;;22.57;70.55
61674;BME280;47573;43.832;5.974;2022-11-15T00:37:42;95176.00;;;22.56;70.43
61674;BME280;47573;43.832;5.974;2022-11-15T00:42:43;95167.72;;;22.51;70.08
61674;BME280;47573;43.832;5.974;2022-11-15T00:47:44;95178.28;;;22.47;70.42
61674;BME280;47573;43.832;5.974;2022-11-15T00:52:46;95175.81;;;22.46;70.23
61674;BME280;47573;43.832;5.974;2022-11-15T00:57:47;95187.16;;;22.42;70.36
61674;BME280;47573;43.832;5.974;2022-11-15T01:02:47;95178.41;;;22.40;70.30
61674;BME280;47573;43.832;5.974;2022-11-15T01:07:52;95174.06;;;22.39;70.35
61674;BME280;47573;43.832;5.974;2022-11-15T01:12:52;95179.72;;;22.38;70.34
61674;BME280;47573;43.832;5.974;2022-11-15T01:17:53;95179.72;;;22.38;70.27
61674;BME280;47573;43.832;5.974;2022-11-15T01:22:55;95169.56;;;22.33;70.56
61674;BME280;47573;43.832;5.974;2022-11-15T01:27:55;95168.19;;;22.31;70.73
61674;BME280;47573;43.832;5.974;2022-11-15T01:32:55;95171.13;;;22.29;70.46
61674;BME280;47573;43.832;5.974;2022-11-15T01:37:57;95166.03;;;22.33;70.27
61674;BME280;47573;43.832;5.974;2022-11-15T01:42:58;95164.03;;;22.28;70.60
61674;BME280;47573;43.832;5.974;2022-11-15T01:47:58;95155.28;;;22.26;70.59
61674;BME280;47573;43.832;5.974;2022-11-15T01:53:00;95153.63;;;22.25;70.31
61674;BME280;47573;43.832;5.974;2022-11-15T01:58:04;95145.72;;;22.24;70.62
61674;BME280;47573;43.832;5.974;2022-11-15T02:03:06;95143.25;;;22.22;70.49
61674;BME280;47573;43.832;5.974;2022-11-15T02:08:08;95129.53;;;22.17;70.51
61674;BME280;47573;43.832;5.974;2022-11-15T02:13:09;95119.50;;;22.18;70.30
61674;BME280;47573;43.832;5.974;2022-11-15T02:18:17;95115.47;;;22.20;70.47
61674;BME280;47573;43.832;5.974;2022-11-15T02:23:45;95113.22;;;22.17;70.38
61674;BME280;47573;43.832;5.974;2022-11-15T02:28:58;95111.22;;;22.13;70.34
61674;BME280;47573;43.832;5.974;2022-11-15T02:34:06;95111.47;;;22.11;70.37
61674;BME280;47573;43.832;5.974;2022-11-15T02:39:17;95092.41;;;21.95;69.12
61674;BME280;47573;43.832;5.974;2022-11-15T02:44:23;95085.88;;;21.56;66.50
61674;BME280;47573;43.832;5.974;2022-11-15T02:49:30;95076.06;;;21.55;65.50
61674;BME280;47573;43.832;5.974;2022-11-15T02:54:33;95081.19;;;21.80;65.85
61674;BME280;47573;43.832;5.974;2022-11-15T03:00:00;95072.91;;;21.86;66.38
61674;BME280;47573;43.832;5.974;2022-11-15T03:05:10;95069.16;;;21.87;66.92
61674;BME280;47573;43.832;5.974;2022-11-15T03:10:20;95074.22;;;21.84;67.68
61674;BME280;47573;43.832;5.974;2022-11-15T03:15:28;95061.94;;;21.81;67.88
61674;BME280;47573;43.832;5.974;2022-11-15T03:20:33;95064.66;;;21.81;67.96
61674;BME280;47573;43.832;5.974;2022-11-15T03:25:38;95066.22;;;21.77;68.40
61674;BME280;47573;43.832;5.974;2022-11-15T03:30:42;95060.66;;;21.72;68.50
61674;BME280;47573;43.832;5.974;2022-11-15T03:35:47;95050.63;;;21.73;68.62
61674;BME280;47573;43.832;5.974;2022-11-15T03:40:54;95054.63;;;21.70;68.64
61674;BME280;47573;43.832;5.974;2022-11-15T03:46:01;95057.34;;;21.70;68.60
61674;BME280;47573;43.832;5.974;2022-11-15T03:51:04;95046.94;;;21.67;68.80
61674;BME280;47573;43.832;5.974;2022-11-15T03:56:05;95041.53;;;21.67;68.72
61674;BME280;47573;43.832;5.974;2022-11-15T04:01:06;95042.03;;;21.64;68.79
61674;BME280;47573;43.832;5.974;2022-11-15T04:06:08;95038.13;;;21.60;68.83
61674;BME280;47573;43.832;5.974;2022-11-15T04:11:08;95027.53;;;21.58;68.83
61674;BME280;47573;43.832;5.974;2022-11-15T04:16:09;95024.19;;;21.56;68.90
61674;BME280;47573;43.832;5.974;2022-11-15T04:21:11;95016.28;;;21.55;68.88
61674;BME280;47573;43.832;5.974;2022-11-15T04:26:12;95006.72;;;21.52;68.93
61674;BME280;47573;43.832;5.974;2022-11-15T04:31:14;95006.97;;;21.51;69.05
61674;BME280;47573;43.832;5.974;2022-11-15T04:36:16;95011.56;;;21.50;69.23
61674;BME280;47573;43.832;5.974;2022-11-15T04:41:17;95011.34;;;21.52;69.02
61674;BME280;47573;43.832;5.974;2022-11-15T04:46:17;95009.69;;;21.51;68.91
61674;BME280;47573;43.832;5.974;2022-11-15T04:51:19;95005.34;;;21.50;68.91
61674;BME280;47573;43.832;5.974;2022-11-15T04:56:20;95004.25;;;21.51;68.94
61674;BME280;47573;43.832;5.974;2022-11-15T05:01:21;95002.63;;;21.50;68.86
61674;BME280;47573;43.832;5.974;2022-11-15T05:06:22;94993.06;;;21.47;69.07
61674;BME280;47573;43.832;5.974;2022-11-15T05:11:23;94991.63;;;21.45;68.80
61674;BME280;47573;43.832;5.974;2022-11-15T05:16:24;94969.91;;;21.45;68.86
61674;BME280;47573;43.832;5.974;2022-11-15T05:21:25;94960.13;;;21.44;68.87
61674;BME280;47573;43.832;5.974;2022-11-15T05:26:26;94968.50;;;21.42;69.11
61674;BME280;47573;43.832;5.974;2022-11-15T05:31:27;94973.13;;;21.42;68.91
61674;BME280;47573;43.832;5.974;2022-11-15T05:36:34;94968.41;;;21.37;69.00
61674;BME280;47573;43.832;5.974;2022-11-15T05:41:38;94964.88;;;21.37;69.26
61674;BME280;47573;43.832;5.974;2022-11-15T05:46:40;94954.00;;;21.37;69.22
61674;BME280;47573;43.832;5.974;2022-11-15T05:51:44;94956.13;;;21.35;69.26
61674;BME280;47573;43.832;5.974;2022-11-15T05:56:47;94949.53;;;21.31;69.26
61674;BME280;47573;43.832;5.974;2022-11-15T06:01:48;94955.81;;;21.31;69.04
61674;BME280;47573;43.832;5.974;2022-11-15T06:06:50;94956.28;;;21.28;69.31
61674;BME280;47573;43.832;5.974;2022-11-15T06:11:51;94969.25;;;21.26;69.21
61674;BME280;47573;43.832;5.974;2022-11-15T06:16:51;94977.16;;;21.28;69.21
61674;BME280;47573;43.832;5.974;2022-11-15T06:21:53;94988.53;;;21.25;69.16
61674;BME280;47573;43.832;5.974;2022-11-15T06:26:54;94996.53;;;21.20;69.30
61674;BME280;47573;43.832;5.974;2022-11-15T06:31:54;94984.06;;;21.19;69.08
61674;BME280;47573;43.832;5.974;2022-11-15T06:36:56;94978.63;;;21.19;69.17
61674;BME280;47573;43.832;5.974;2022-11-15T06:41:56;94985.34;;;21.16;69.09
61674;BME280;47573;43.832;5.974;2022-11-15T06:46:57;94985.94;;;21.18;69.20
61674;BME280;47573;43.832;5.974;2022-11-15T06:51:59;94982.88;;;21.15;69.29
61674;BME280;47573;43.832;5.974;2022-11-15T06:56:59;94975.78;;;21.14;69.10
61674;BME280;47573;43.832;5.974;2022-11-15T07:02:00;94988.78;;;21.12;69.20
61674;BME280;47573;43.832;5.974;2022-11-15T07:07:01;94979.09;;;21.16;69.51
61674;BME280;47573;43.832;5.974;2022-11-15T07:12:02;94970.50;;;21.07;69.70
61674;BME280;47573;43.832;5.974;2022-11-15T07:17:03;94985.13;;;21.06;70.03
61674;BME280;47573;43.832;5.974;2022-11-15T07:22:05;94987.03;;;21.06;69.99
61674;BME280;47573;43.832;5.974;2022-11-15T07:27:06;94985.00;;;21.13;69.93
61674;BME280;47573;43.832;5.974;2022-11-15T07:32:06;94992.19;;;21.07;70.23
61674;BME280;47573;43.832;5.974;2022-11-15T07:37:08;94997.53;;;21.02;70.38
61674;BME280;47573;43.832;5.974;2022-11-15T07:42:09;95003.78;;;21.03;70.42
61674;BME280;47573;43.832;5.974;2022-11-15T07:47:09;95006.47;;;21.03;70.17
61674;BME280;47573;43.832;5.974;2022-11-15T07:52:11;95000.34;;;20.96;70.41
61674;BME280;47573;43.832;5.974;2022-11-15T07:57:11;95001.97;;;20.97;70.40
61674;BME280;47573;43.832;5.974;2022-11-15T08:02:12;94992.28;;;21.01;70.23
61674;BME280;47573;43.832;5.974;2022-11-15T08:07:14;94989.41;;;21.02;70.26
61674;BME280;47573;43.832;5.974;2022-11-15T08:12:14;94989.00;;;20.99;70.19
61674;BME280;47573;43.832;5.974;2022-11-15T08:17:15;94995.00;;;21.01;70.12
61674;BME280;47573;43.832;5.974;2022-11-15T08:22:17;94991.03;;;21.03;70.01
61674;BME280;47573;43.832;5.974;2022-11-15T08:27:17;94989.03;;;21.10;69.91
61674;BME280;47573;43.832;5.974;2022-11-15T08:32:18;94994.78;;;21.14;69.68
61674;BME280;47573;43.832;5.974;2022-11-15T08:37:20;94993.03;;;21.08;70.00
61674;BME280;47573;43.832;5.974;2022-11-15T08:42:20;94991.63;;;21.17;69.74
61674;BME280;47573;43.832;5.974;2022-11-15T08:47:20;94991.63;;;21.17;69.46
61674;BME280;47573;43.832;5.974;2022-11-15T08:52:22;94991.03;;;21.15;69.60
61674;BME280;47573;43.832;5.974;2022-11-15T08:57:23;94992.56;;;21.11;69.78
61674;BME280;47573;43.832;5.974;2022-11-15T09:02:24;94992.66;;;21.16;69.42
61674;BME280;47573;43.832;5.974;2022-11-15T09:07:26;94993.50;;;21.05;69.73
61674;BME280;47573;43.832;5.974;2022-11-15T09:12:26;94990.91;;;21.10;69.40
61674;BME280;47573;43.832;5.974;2022-11-15T09:17:27;94983.94;;;21.14;69.50
61674;BME280;47573;43.832;5.974;2022-11-15T09:22:29;94964.22;;;21.07;69.58
61674;BME280;47573;43.832;5.974;2022-11-15T09:27:30;94960.78;;;21.11;69.58
61674;BME280;47573;43.832;5.974;2022-11-15T09:32:31;94963.28;;;21.13;69.28
61674;BME280;47573;43.832;5.974;2022-11-15T09:37:33;94964.94;;;21.14;69.45
61674;BME280;47573;43.832;5.974;2022-11-15T09:42:45;94960.78;;;21.11;69.44
61674;BME280;47573;43.832;5.974;2022-11-15T09:48:19;94962.94;;;21.09;69.32
61674;BME280;47573;43.832;5.974;2022-11-15T09:53:29;94962.72;;;21.11;69.36
61674;BME280;47573;43.832;5.974;2022-11-15T09:58:37;94961.63;;;21.12;69.16
61674;BME280;47573;43.832;5.974;2022-11-15T10:03:40;94955.38;;;21.11;69.36
61674;BME280;47573;43.832;5.974;2022-11-15T10:08:51;94962.09;;;21.09;69.14
61674;BME280;47573;43.832;5.974;2022-11-15T10:13:57;94955.50;;;21.05;69.72
61674;BME280;47573;43.832;5.974;2022-11-15T10:19:03;94956.66;;;21.09;69.25
61674;BME280;47573;43.832;5.974;2022-11-15T10:24:12;94951.22;;;21.09;69.03
61674;BME280;47573;43.832;5.974;2022-11-15T10:29:18;94936.63;;;21.10;69.05
61674;BME280;47573;43.832;5.974;2022-11-15T10:34:20;94917.63;;;21.10;69.14
61674;BME280;47573;43.832;5.974;2022-11-15T10:39:23;94911.00;;;21.06;69.10
61674;BME280;47573;43.832;5.974;2022-11-15T10:44:26;94906.63;;;21.05;69.03
61674;BME280;47573;43.832;5.974;2022-11-15T10:49:28;94893.66;;;21.07;69.07
61674;BME280;47573;43.832;5.974;2022-11-15T10:54:37;94886.59;;;21.06;69.08
61674;BME280;47573;43.832;5.974;2022-11-15T10:59:42;94885.63;;;21.12;68.88
61674;BME280;47573;43.832;5.974;2022-11-15T11:04:49;94868.16;;;21.08;68.97
61674;BME280;47573;43.832;5.974;2022-11-15T11:09:58;94864.53;;;21.02;69.09
61674;BME280;47573;43.832;5.974;2022-11-15T11:15:05;94867.34;;;21.07;69.07
61674;BME280;47573;43.832;5.974;2022-11-15T11:20:16;94860.38;;;21.00;69.47
61674;BME280;47573;43.832;5.974;2022-11-15T11:25:28;94853.19;;;21.05;69.18
61674;BME280;47573;43.832;5.974;2022-11-15T11:30:41;94841.59;;;21.10;69.01
61674;BME280;47573;43.832;5.974;2022-11-15T11:35:50;94830.63;;;21.05;69.22
61674;BME280;47573;43.832;5.974;2022-11-15T11:41:05;94813.88;;;21.08;69.06
61674;BME280;47573;43.832;5.974;2022-11-15T11:46:27;94814.34;;;21.05;69.00
61674;BME280;47573;43.832;5.974;2022-11-15T11:51:35;94816.00;;;21.06;69.01
61674;BME280;47573;43.832;5.974;2022-11-15T11:56:41;94808.44;;;21.08;68.93
61674;BME280;47573;43.832;5.974;2022-11-15T12:01:43;94795.47;;;21.10;68.92
61674;BME280;47573;43.832;5.974;2022-11-15T12:06:48;94777.44;;;21.04;69.07
61674;BME280;47573;43.832;5.974;2022-11-15T12:11:56;94774.22;;;21.07;68.94
61674;BME280;47573;43.832;5.974;2022-11-15T12:16:58;94772.09;;;21.09;68.87
61674;BME280;47573;43.832;5.974;2022-11-15T12:22:03;94756.03;;;21.07;68.79
61674;BME280;47573;43.832;5.974;2022-11-15T12:27:15;94755.31;;;21.12;68.87
61674;BME280;47573;43.832;5.974;2022-11-15T12:32:24;94749.06;;;21.11;68.83
61674;BME280;47573;43.832;5.974;2022-11-15T12:37:50;94735.75;;;21.10;68.80
61674;BME280;47573;43.832;5.974;2022-11-15T12:43:00;94730.31;;;21.10;68.76
61674;BME280;47573;43.832;5.974;2022-11-15T12:53:58;94703.16;;;21.10;68.77
61674;BME280;47573;43.832;5.974;2022-11-15T12:59:00;94699.16;;;21.12;68.78
61674;BME280;47573;43.832;5.974;2022-11-15T13:04:11;94686.88;;;21.10;68.86
61674;BME280;47573;43.832;5.974;2022-11-15T13:09:51;94686.88;;;21.10;68.96
61674;BME280;47573;43.832;5.974;2022-11-15T13:14:54;94680.03;;;21.07;68.89
61674;BME280;47573;43.832;5.974;2022-11-15T13:19:59;94664.59;;;21.08;68.68
61674;BME280;47573;43.832;5.974;2022-11-15T13:25:00;94668.34;;;21.07;69.05
61674;BME280;47573;43.832;5.974;2022-11-15T13:30:04;94659.28;;;21.01;69.07
61674;BME280;47573;43.832;5.974;2022-11-15T13:35:06;94653.16;;;21.06;68.74
61674;BME280;47573;43.832;5.974;2022-11-15T13:40:18;94642.31;;;21.06;68.79
61674;BME280;47573;43.832;5.974;2022-11-15T13:45:21;94629.78;;;21.05;68.76
61674;BME280;47573;43.832;5.974;2022-11-15T13:50:25;94619.41;;;21.02;68.95
61674;BME280;47573;43.832;5.974;2022-11-15T13:55:27;94604.31;;;21.06;68.79
61674;BME280;47573;43.832;5.974;2022-11-15T14:00:34;94604.78;;;21.03;68.98
61674;BME280;47573;43.832;5.974;2022-11-15T14:05:35;94593.94;;;21.03;68.99
61674;BME280;47573;43.832;5.974;2022-11-15T14:10:37;94596.16;;;21.06;68.79
61674;BME280;47573;43.832;5.974;2022-11-15T14:15:39;94588.84;;;21.06;68.69
61674;BME280;47573;43.832;5.974;2022-11-15T14:20:40;94593.59;;;20.99;68.98
61674;BME280;47573;43.832;5.974;2022-11-15T14:25:52;94579.31;;;21.04;68.75
61674;BME280;47573;43.832;5.974;2022-11-15T14:30:55;94568.44;;;21.04;68.93
61674;BME280;47573;43.832;5.974;2022-11-15T14:35:57;94569.59;;;21.08;68.49
61674;BME280;47573;43.832;5.974;2022-11-15T14:40:58;94564.75;;;21.10;68.71
61674;BME280;47573;43.832;5.974;2022-11-15T14:46:01;94568.31;;;21.32;68.56
61674;BME280;47573;43.832;5.974;2022-11-15T14:51:01;94559.34;;;21.53;68.18
61674;BME280;47573;43.832;5.974;2022-11-15T14:56:02;94554.00;;;21.58;68.66
61674;BME280;47573;43.832;5.974;2022-11-15T15:01:10;94564.34;;;21.61;68.63
61674;BME280;47573;43.832;5.974;2022-11-15T15:06:12;94550.28;;;21.64;68.81
61674;BME280;47573;43.832;5.974;2022-11-15T15:11:14;94543.81;;;21.70;68.94
61674;BME280;47573;43.832;5.974;2022-11-15T15:16:18;94540.09;;;21.76;68.93
61674;BME280;47573;43.832;5.974;2022-11-15T15:21:20;94540.16;;;21.81;68.74
61674;BME280;47573;43.832;5.974;2022-11-15T15:26:23;94527.41;;;21.82;69.11
61674;BME280;47573;43.832;5.974;2022-11-15T15:31:25;94524.25;;;21.90;68.91
61674;BME280;47573;43.832;5.974;2022-11-15T15:36:25;94518.59;;;21.96;69.08
61674;BME280;47573;43.832;5.974;2022-11-15T15:41:26;94518.94;;;22.00;69.22
61674;BME280;47573;43.832;5.974;2022-11-15T15:46:28;94512.13;;;22.02;69.27
61674;BME280;47573;43.832;5.974;2022-11-15T15:51:29;94507.53;;;22.03;69.36
61674;BME280;47573;43.832;5.974;2022-11-15T15:56:29;94500.97;;;21.99;69.61
61674;BME280;47573;43.832;5.974;2022-11-15T16:01:31;94499.63;;;22.01;69.62
61674;BME280;47573;43.832;5.974;2022-11-15T16:06:36;94491.22;;;22.03;69.54
61674;BME280;47573;43.832;5.974;2022-11-15T16:11:37;94487.75;;;22.07;69.53
61674;BME280;47573;43.832;5.974;2022-11-15T16:16:39;94492.06;;;22.03;69.77
61674;BME280;47573;43.832;5.974;2022-11-15T16:21:40;94489.59;;;22.02;69.76
61674;BME280;47573;43.832;5.974;2022-11-15T16:26:41;94493.25;;;22.12;69.66
61674;BME280;47573;43.832;5.974;2022-11-15T16:31:43;94488.91;;;22.16;69.49
61674;BME280;47573;43.832;5.974;2022-11-15T16:36:44;94480.22;;;22.19;69.24
61674;BME280;47573;43.832;5.974;2022-11-15T16:41:44;94481.34;;;22.23;69.36
61674;BME280;47573;43.832;5.974;2022-11-15T16:46:46;94480.28;;;22.24;69.10
61674;BME280;47573;43.832;5.974;2022-11-15T16:51:48;94473.75;;;22.25;69.14
61674;BME280;47573;43.832;5.974;2022-11-15T16:56:49;94476.47;;;22.25;69.28
61674;BME280;47573;43.832;5.974;2022-11-15T17:01:51;94463.44;;;22.27;69.50
61674;BME280;47573;43.832;5.974;2022-11-15T17:06:51;94462.38;;;22.28;69.53
61674;BME280;47573;43.832;5.974;2022-11-15T17:11:52;94464.84;;;22.30;69.51
61674;BME280;47573;43.832;5.974;2022-11-15T17:16:54;94477.59;;;22.29;69.49
61674;BME280;47573;43.832;5.974;2022-11-15T17:21:55;94473.28;;;22.33;69.75
61674;BME280;47573;43.832;5.974;2022-11-15T17:26:55;94457.53;;;22.35;69.65
61674;BME280;47573;43.832;5.974;2022-11-15T17:31:57;94456.47;;;22.36;69.78
61674;BME280;47573;43.832;5.974;2022-11-15T17:36:57;94468.47;;;22.40;69.63
61674;BME280;47573;43.832;5.974;2022-11-15T17:41:58;94458.69;;;22.39;69.81
61674;BME280;47573;43.832;5.974;2022-11-15T17:47:00;94460.59;;;22.44;70.00
61674;BME280;47573;43.832;5.974;2022-11-15T17:52:00;94455.97;;;22.45;69.81
61674;BME280;47573;43.832;5.974;2022-11-15T17:57:01;94461.16;;;22.46;70.09
61674;BME280;47573;43.832;5.974;2022-11-15T18:02:03;94463.63;;;22.48;70.12
61674;BME280;47573;43.832;5.974;2022-11-15T18:07:03;94458.75;;;22.50;69.96
61674;BME280;47573;43.832;5.974;2022-11-15T18:12:06;94459.31;;;22.52;70.36
61674;BME280;47573;43.832;5.974;2022-11-15T18:17:08;94446.78;;;22.51;70.37
61674;BME280;47573;43.832;5.974;2022-11-15T18:22:09;94439.72;;;22.55;70.14
61674;BME280;47573;43.832;5.974;2022-11-15T18:27:09;94437.09;;;22.60;70.18
61674;BME280;47573;43.832;5.974;2022-11-15T18:32:11;94441.69;;;22.59;70.29
61674;BME280;47573;43.832;5.974;2022-11-15T18:37:11;94457.19;;;22.59;70.30
61674;BME280;47573;43.832;5.974;2022-11-15T18:42:12;94465.91;;;22.61;70.20
61674;BME280;47573;43.832;5.974;2022-11-15T18:47:14;94464.59;;;22.63;70.32
61674;BME280;47573;43.832;5.974;2022-11-15T18:52:14;94465.41;;;22.64;70.53
61674;BME280;47573;43.832;5.974;2022-11-15T18:57:15;94447.19;;;22.64;70.35
61674;BME280;47573;43.832;5.974;2022-11-15T19:02:17;94451.03;;;22.68;70.46
61674;BME280;47573;43.832;5.974;2022-11-15T19:07:17;94449.69;;;22.71;70.61
61674;BME280;47573;43.832;5.974;2022-11-15T19:12:18;94445.88;;;22.72;70.62
61674;BME280;47573;43.832;5.974;2022-11-15T19:17:20;94438.25;;;22.74;70.37
61674;BME280;47573;43.832;5.974;2022-11-15T19:22:20;94439.91;;;22.75;70.64
61674;BME280;47573;43.832;5.974;2022-11-15T19:27:21;94444.81;;;22.78;70.55
61674;BME280;47573;43.832;5.974;2022-11-15T19:32:23;94430.94;;;22.79;70.81
61674;BME280;47573;43.832;5.974;2022-11-15T19:37:23;94432.88;;;22.84;70.41
61674;BME280;47573;43.832;5.974;2022-11-15T19:42:23;94429.09;;;22.85;70.42
61674;BME280;47573;43.832;5.974;2022-11-15T19:47:25;94422.53;;;22.86;70.37
61674;BME280;47573;43.832;5.974;2022-11-15T19:52:26;94431.81;;;22.90;70.63
61674;BME280;47573;43.832;5.974;2022-11-15T19:57:27;94421.75;;;22.90;70.86
61674;BME280;47573;43.832;5.974;2022-11-15T20:02:29;94407.88;;;22.92;70.70
61674;BME280;47573;43.832;5.974;2022-11-15T20:07:29;94407.38;;;22.95;70.63
61674;BME280;47573;43.832;5.974;2022-11-15T20:12:30;94409.81;;;22.96;70.67
61674;BME280;47573;43.832;5.974;2022-11-15T20:17:32;94410.63;;;22.97;70.88
61674;BME280;47573;43.832;5.974;2022-11-15T20:22:32;94411.75;;;23.01;70.55
61674;BME280;47573;43.832;5.974;2022-11-15T20:27:33;94401.41;;;23.03;70.94
61674;BME280;47573;43.832;5.974;2022-11-15T20:32:35;94386.16;;;23.02;70.81
61674;BME280;47573;43.832;5.974;2022-11-15T20:37:35;94401.13;;;23.04;70.94
61674;BME280;47573;43.832;5.974;2022-11-15T20:42:36;94408.25;;;23.05;70.88
61674;BME280;47573;43.832;5.974;2022-11-15T20:47:37;94399.78;;;23.07;70.63
61674;BME280;47573;43.832;5.974;2022-11-15T20:52:38;94401.44;;;23.08;70.75
61674;BME280;47573;43.832;5.974;2022-11-15T20:57:38;94404.75;;;23.20;70.74
61674;BME280;47573;43.832;5.974;2022-11-15T21:02:40;94396.56;;;23.15;70.96
61674;BME280;47573;43.832;5.974;2022-11-15T21:07:41;94397.09;;;23.12;71.83
61674;BME280;47573;43.832;5.974;2022-11-15T21:12:41;94399.84;;;23.12;72.17
61674;BME280;47573;43.832;5.974;2022-11-15T21:17:43;94404.16;;;23.13;72.21
61674;BME280;47573;43.832;5.974;2022-11-15T21:22:44;94404.72;;;23.15;72.00
61674;BME280;47573;43.832;5.974;2022-11-15T21:27:44;94383.78;;;23.15;71.84
61674;BME280;47573;43.832;5.974;2022-11-15T21:32:46;94370.31;;;22.89;72.55
61674;BME280;47573;43.832;5.974;2022-11-15T21:37:46;94388.22;;;22.75;72.68
61674;BME280;47573;43.832;5.974;2022-11-15T21:42:47;94414.56;;;22.69;72.93
61674;BME280;47573;43.832;5.974;2022-11-15T21:47:49;94407.16;;;22.65;73.25
61674;BME280;47573;43.832;5.974;2022-11-15T21:52:49;94403.09;;;22.62;73.15
61674;BME280;47573;43.832;5.974;2022-11-15T21:57:50;94373.41;;;22.61;73.25
61674;BME280;47573;43.832;5.974;2022-11-15T22:02:52;94376.69;;;22.63;72.82
61674;BME280;47573;43.832;5.974;2022-11-15T22:07:52;94340.25;;;22.64;72.83
61674;BME280;47573;43.832;5.974;2022-11-15T22:12:53;94355.19;;;22.61;72.84
61674;BME280;47573;43.832;5.974;2022-11-15T22:17:54;94386.47;;;22.59;72.77
61674;BME280;47573;43.832;5.974;2022-11-15T22:22:55;94367.56;;;22.42;72.92
61674;BME280;47573;43.832;5.974;2022-11-15T22:27:56;94373.25;;;22.40;72.76
61674;BME280;47573;43.832;5.974;2022-11-15T22:32:58;94378.72;;;22.40;72.83
61674;BME280;47573;43.832;5.974;2022-11-15T22:37:58;94382.81;;;22.43;72.39
61674;BME280;47573;43.832;5.974;2022-11-15T22:42:59;94376.53;;;22.42;72.65
61674;BME280;47573;43.832;5.974;2022-11-15T22:48:00;94371.94;;;22.43;72.61
61674;BME280;47573;43.832;5.974;2022-11-15T22:53:01;94365.63;;;22.37;72.96
61674;BME280;47573;43.832;5.974;2022-11-15T22:58:01;94365.59;;;22.32;72.90
61674;BME280;47573;43.832;5.974;2022-11-15T23:03:03;94350.63;;;22.30;72.97
61674;BME280;47573;43.832;5.974;2022-11-15T23:08:04;94339.47;;;22.26;73.11
61674;BME280;47573;43.832;5.974;2022-11-15T23:13:05;94330.75;;;22.24;73.14
61674;BME280;47573;43.832;5.974;2022-11-15T23:18:08;94305.72;;;22.22;73.06
61674;BME280;47573;43.832;5.974;2022-11-15T23:23:09;94288.84;;;22.20;72.93
61674;BME280;47573;43.832;5.974;2022-11-15T23:28:10;94303.56;;;22.24;72.73
61674;BME280;47573;43.832;5.974;2022-11-15T23:33:13;94295.34;;;22.19;72.71
61674;BME280;47573;43.832;5.974;2022-11-15T23:38:14;94287.19;;;22.14;73.00
61674;BME280;47573;43.832;5.974;2022-11-15T23:43:14;94280.34;;;22.12;72.55
61674;BME280;47573;43.832;5.974;2022-11-15T23:48:16;94283.91;;;22.12;72.71
61674;BME280;47573;43.832;5.974;2022-11-15T23:53:17;94302.38;;;22.10;72.65
61674;BME280;47573;43.832;5.974;2022-11-15T23:58:17;94295.00;;;22.06;72.79
